Hauptseite
METAR-TAF:

METAR-TAF

Flughäfen :

Middle Wallop, England

Middle Wallop Airfield

Breite: 51-09N, Länge: 001-34W, Höhe: 91 m

Beobachtung

Neuester Wetterbericht von vor 1 Stunde und 5 Minuten, um 08:50 UTC
Wind 4 kt aus Süd/Südost
Temperatur 18°C
Luftfeuchtigkeit 64%
Luftdruck 1023 hPa
Sichtweite 10 km oder mehr
keine Wolken unter 1500 m und keine Kumulonimbus oder Gewitterwolken

METAR: EGVP 190850Z 16004KT CAVOK 18/11 Q1023 BLU NOSIG

Zeit: 10:55 (09:55 UTC)

Prognose

Neuester Wetterbericht von vor 2 Stunden und 37 Minuten, um 07:18 UTC
Gültige Prognose vom 19 um 09 UTC bis 19 um 18 UTC
Wind 3 kt aus unterschiedlichen Richtungen
Sichtweite 10 km oder mehr
keine Wolken unter 1500 m und keine Kumulonimbus oder Gewitterwolken

TAF: EGVP 190718Z 1909/1918 VRB03KT CAVOK

Wetterbeobachtungen und Prognosen von mehr als 4000 Flughäfen (METAR und TAF Bericht).

Die verfügbaren Stationen werden durch gelbe und rote Markierungen auf der Karte dargestellt.

Führen Sie die Maus auf sie, um den Namen der Station zu sehen.

Darauf klicken, um die Beobachtung von Wetterbeobachtungen und Prognosen zu sehen.

Um die Karte zu ändern : klicken Sie auf den grünen Tasten mit einem schwarzen Kreuz Zum Vergrößern, auf den grünen Button mit einem Gedankenstrich zu verkleinern, oder auf die grünen Pfeile für benachbarte Karten.


METAR-TAF: